sensor_id;sensor_type;location;lat;lon;timestamp;P1;durP1;ratioP1;P2;durP2;ratioP2
36457;SDS011;22480;50.546;12.292;2024-03-02T00:02:24;60.05;;;31.08;;
36457;SDS011;22480;50.546;12.292;2024-03-02T00:04:50;62.20;;;31.95;;
36457;SDS011;22480;50.546;12.292;2024-03-02T00:07:16;57.97;;;31.33;;
36457;SDS011;22480;50.546;12.292;2024-03-02T00:09:42;63.65;;;32.63;;
36457;SDS011;22480;50.546;12.292;2024-03-02T00:12:10;62.03;;;30.95;;
36457;SDS011;22480;50.546;12.292;2024-03-02T00:14:40;60.53;;;30.35;;
36457;SDS011;22480;50.546;12.292;2024-03-02T00:17:06;63.35;;;32.85;;
36457;SDS011;22480;50.546;12.292;2024-03-02T00:19:41;66.40;;;32.90;;
36457;SDS011;22480;50.546;12.292;2024-03-02T00:22:07;68.57;;;34.05;;
36457;SDS011;22480;50.546;12.292;2024-03-02T00:24:34;63.65;;;32.03;;
36457;SDS011;22480;50.546;12.292;2024-03-02T00:27:01;66.93;;;35.08;;
36457;SDS011;22480;50.546;12.292;2024-03-02T00:29:30;69.85;;;33.47;;
36457;SDS011;22480;50.546;12.292;2024-03-02T00:31:56;63.15;;;31.25;;
36457;SDS011;22480;50.546;12.292;2024-03-02T00:34:23;62.72;;;31.95;;
36457;SDS011;22480;50.546;12.292;2024-03-02T00:36:49;71.22;;;34.47;;
36457;SDS011;22480;50.546;12.292;2024-03-02T00:39:15;68.50;;;34.28;;
36457;SDS011;22480;50.546;12.292;2024-03-02T00:41:42;64.80;;;32.15;;
36457;SDS011;22480;50.546;12.292;2024-03-02T00:44:12;62.47;;;32.17;;
36457;SDS011;22480;50.546;12.292;2024-03-02T00:46:41;74.43;;;34.50;;
36457;SDS011;22480;50.546;12.292;2024-03-02T00:49:21;75.20;;;35.20;;
36457;SDS011;22480;50.546;12.292;2024-03-02T00:51:49;80.00;;;35.55;;
36457;SDS011;22480;50.546;12.292;2024-03-02T00:54:19;76.90;;;35.65;;
36457;SDS011;22480;50.546;12.292;2024-03-02T00:56:46;78.72;;;35.17;;
36457;SDS011;22480;50.546;12.292;2024-03-02T00:59:12;82.85;;;36.70;;
36457;SDS011;22480;50.546;12.292;2024-03-02T01:01:38;86.30;;;35.80;;
36457;SDS011;22480;50.546;12.292;2024-03-02T01:04:04;86.75;;;38.35;;
36457;SDS011;22480;50.546;12.292;2024-03-02T01:06:30;85.75;;;37.78;;
36457;SDS011;22480;50.546;12.292;2024-03-02T01:08:55;88.95;;;37.80;;
36457;SDS011;22480;50.546;12.292;2024-03-02T01:11:21;82.55;;;37.47;;
36457;SDS011;22480;50.546;12.292;2024-03-02T01:13:47;69.88;;;34.38;;
36457;SDS011;22480;50.546;12.292;2024-03-02T01:16:13;86.20;;;37.55;;
36457;SDS011;22480;50.546;12.292;2024-03-02T01:18:40;85.65;;;37.13;;
36457;SDS011;22480;50.546;12.292;2024-03-02T01:21:06;79.35;;;37.60;;
36457;SDS011;22480;50.546;12.292;2024-03-02T01:23:32;89.13;;;36.70;;
36457;SDS011;22480;50.546;12.292;2024-03-02T01:25:58;80.40;;;35.45;;
36457;SDS011;22480;50.546;12.292;2024-03-02T01:28:24;78.32;;;36.42;;
36457;SDS011;22480;50.546;12.292;2024-03-02T01:30:49;72.15;;;32.42;;
36457;SDS011;22480;50.546;12.292;2024-03-02T01:33:16;69.85;;;33.90;;
36457;SDS011;22480;50.546;12.292;2024-03-02T01:35:42;81.60;;;36.30;;
36457;SDS011;22480;50.546;12.292;2024-03-02T01:38:08;67.03;;;32.35;;
36457;SDS011;22480;50.546;12.292;2024-03-02T01:40:35;74.28;;;33.17;;
36457;SDS011;22480;50.546;12.292;2024-03-02T01:43:01;78.88;;;34.08;;
36457;SDS011;22480;50.546;12.292;2024-03-02T01:45:27;66.03;;;32.65;;
36457;SDS011;22480;50.546;12.292;2024-03-02T01:47:53;72.10;;;32.75;;
36457;SDS011;22480;50.546;12.292;2024-03-02T01:50:26;72.68;;;31.67;;
36457;SDS011;22480;50.546;12.292;2024-03-02T01:52:52;71.57;;;33.17;;
36457;SDS011;22480;50.546;12.292;2024-03-02T01:55:18;76.63;;;34.38;;
36457;SDS011;22480;50.546;12.292;2024-03-02T01:57:44;72.22;;;32.60;;
36457;SDS011;22480;50.546;12.292;2024-03-02T02:00:10;81.80;;;36.28;;
36457;SDS011;22480;50.546;12.292;2024-03-02T02:02:37;76.57;;;35.13;;
36457;SDS011;22480;50.546;12.292;2024-03-02T02:05:02;72.57;;;33.72;;
36457;SDS011;22480;50.546;12.292;2024-03-02T02:07:29;72.38;;;34.30;;
36457;SDS011;22480;50.546;12.292;2024-03-02T02:09:54;71.88;;;34.65;;
36457;SDS011;22480;50.546;12.292;2024-03-02T02:12:20;78.70;;;36.88;;
36457;SDS011;22480;50.546;12.292;2024-03-02T02:14:49;90.03;;;37.83;;
36457;SDS011;22480;50.546;12.292;2024-03-02T02:17:17;79.18;;;35.28;;
36457;SDS011;22480;50.546;12.292;2024-03-02T02:19:43;79.18;;;34.90;;
36457;SDS011;22480;50.546;12.292;2024-03-02T02:22:11;77.72;;;35.10;;
36457;SDS011;22480;50.546;12.292;2024-03-02T02:24:40;78.32;;;34.75;;
36457;SDS011;22480;50.546;12.292;2024-03-02T02:27:07;74.03;;;33.70;;
36457;SDS011;22480;50.546;12.292;2024-03-02T02:29:33;78.05;;;35.20;;
36457;SDS011;22480;50.546;12.292;2024-03-02T02:31:59;78.78;;;35.20;;
36457;SDS011;22480;50.546;12.292;2024-03-02T02:34:25;73.30;;;35.10;;
36457;SDS011;22480;50.546;12.292;2024-03-02T02:36:50;84.20;;;33.92;;
36457;SDS011;22480;50.546;12.292;2024-03-02T02:39:17;74.82;;;34.58;;
36457;SDS011;22480;50.546;12.292;2024-03-02T02:41:46;75.05;;;36.30;;
36457;SDS011;22480;50.546;12.292;2024-03-02T02:44:11;88.75;;;37.17;;
36457;SDS011;22480;50.546;12.292;2024-03-02T02:46:38;86.03;;;37.67;;
36457;SDS011;22480;50.546;12.292;2024-03-02T02:49:04;69.15;;;34.75;;
36457;SDS011;22480;50.546;12.292;2024-03-02T02:51:30;79.47;;;36.80;;
36457;SDS011;22480;50.546;12.292;2024-03-02T02:53:56;80.78;;;37.42;;
36457;SDS011;22480;50.546;12.292;2024-03-02T02:56:21;83.32;;;37.08;;
36457;SDS011;22480;50.546;12.292;2024-03-02T02:58:47;83.97;;;38.28;;
36457;SDS011;22480;50.546;12.292;2024-03-02T03:01:15;89.90;;;38.42;;
36457;SDS011;22480;50.546;12.292;2024-03-02T03:03:43;65.00;;;30.33;;
36457;SDS011;22480;50.546;12.292;2024-03-02T03:06:09;81.07;;;35.10;;
36457;SDS011;22480;50.546;12.292;2024-03-02T03:08:35;85.60;;;36.00;;
36457;SDS011;22480;50.546;12.292;2024-03-02T03:11:01;88.90;;;37.30;;
36457;SDS011;22480;50.546;12.292;2024-03-02T03:13:27;91.90;;;38.00;;
36457;SDS011;22480;50.546;12.292;2024-03-02T03:15:52;81.47;;;36.38;;
36457;SDS011;22480;50.546;12.292;2024-03-02T03:18:18;85.43;;;38.53;;
36457;SDS011;22480;50.546;12.292;2024-03-02T03:20:43;89.82;;;38.60;;
36457;SDS011;22480;50.546;12.292;2024-03-02T03:23:09;95.30;;;41.60;;
36457;SDS011;22480;50.546;12.292;2024-03-02T03:25:40;92.25;;;40.35;;
36457;SDS011;22480;50.546;12.292;2024-03-02T03:28:06;89.90;;;40.58;;
36457;SDS011;22480;50.546;12.292;2024-03-02T03:30:32;90.40;;;39.17;;
36457;SDS011;22480;50.546;12.292;2024-03-02T03:32:57;89.68;;;39.80;;
36457;SDS011;22480;50.546;12.292;2024-03-02T03:35:23;86.88;;;38.25;;
36457;SDS011;22480;50.546;12.292;2024-03-02T03:37:49;94.30;;;38.72;;
36457;SDS011;22480;50.546;12.292;2024-03-02T03:40:14;83.45;;;37.92;;
36457;SDS011;22480;50.546;12.292;2024-03-02T03:42:40;99.03;;;38.85;;
36457;SDS011;22480;50.546;12.292;2024-03-02T03:45:06;94.72;;;39.95;;
36457;SDS011;22480;50.546;12.292;2024-03-02T03:47:32;95.40;;;40.78;;
36457;SDS011;22480;50.546;12.292;2024-03-02T03:49:58;99.13;;;39.53;;
36457;SDS011;22480;50.546;12.292;2024-03-02T03:52:23;88.80;;;40.90;;
36457;SDS011;22480;50.546;12.292;2024-03-02T03:54:49;90.13;;;39.70;;
36457;SDS011;22480;50.546;12.292;2024-03-02T03:57:15;97.72;;;38.13;;
36457;SDS011;22480;50.546;12.292;2024-03-02T03:59:41;91.40;;;37.85;;
36457;SDS011;22480;50.546;12.292;2024-03-02T04:02:07;85.38;;;35.55;;
36457;SDS011;22480;50.546;12.292;2024-03-02T04:04:34;86.60;;;39.33;;
36457;SDS011;22480;50.546;12.292;2024-03-02T04:07:00;83.72;;;36.80;;
36457;SDS011;22480;50.546;12.292;2024-03-02T04:09:25;90.50;;;38.70;;
36457;SDS011;22480;50.546;12.292;2024-03-02T04:11:52;87.10;;;35.72;;
36457;SDS011;22480;50.546;12.292;2024-03-02T04:14:18;86.00;;;37.03;;
36457;SDS011;22480;50.546;12.292;2024-03-02T04:16:43;84.28;;;38.25;;
36457;SDS011;22480;50.546;12.292;2024-03-02T04:19:09;77.90;;;35.28;;
36457;SDS011;22480;50.546;12.292;2024-03-02T04:21:35;88.15;;;38.97;;
36457;SDS011;22480;50.546;12.292;2024-03-02T04:24:00;80.82;;;36.70;;
36457;SDS011;22480;50.546;12.292;2024-03-02T04:26:26;75.80;;;35.28;;
36457;SDS011;22480;50.546;12.292;2024-03-02T04:28:52;80.72;;;35.25;;
36457;SDS011;22480;50.546;12.292;2024-03-02T04:31:19;81.85;;;36.28;;
36457;SDS011;22480;50.546;12.292;2024-03-02T04:33:44;73.47;;;35.63;;
36457;SDS011;22480;50.546;12.292;2024-03-02T04:36:10;73.00;;;35.63;;
36457;SDS011;22480;50.546;12.292;2024-03-02T04:38:37;68.63;;;32.42;;
36457;SDS011;22480;50.546;12.292;2024-03-02T04:41:04;68.95;;;32.83;;
36457;SDS011;22480;50.546;12.292;2024-03-02T04:43:33;65.38;;;30.08;;
36457;SDS011;22480;50.546;12.292;2024-03-02T04:45:59;61.08;;;30.90;;
36457;SDS011;22480;50.546;12.292;2024-03-02T04:48:26;65.10;;;31.67;;
36457;SDS011;22480;50.546;12.292;2024-03-02T04:50:52;68.40;;;30.15;;
36457;SDS011;22480;50.546;12.292;2024-03-02T04:53:17;60.92;;;30.48;;
36457;SDS011;22480;50.546;12.292;2024-03-02T04:55:43;62.97;;;30.20;;
36457;SDS011;22480;50.546;12.292;2024-03-02T04:58:09;65.85;;;30.80;;
36457;SDS011;22480;50.546;12.292;2024-03-02T05:00:35;60.97;;;29.35;;
36457;SDS011;22480;50.546;12.292;2024-03-02T05:03:01;59.60;;;28.58;;
36457;SDS011;22480;50.546;12.292;2024-03-02T05:05:27;64.72;;;29.42;;
36457;SDS011;22480;50.546;12.292;2024-03-02T05:07:52;57.67;;;28.88;;
36457;SDS011;22480;50.546;12.292;2024-03-02T05:10:18;58.35;;;30.33;;
36457;SDS011;22480;50.546;12.292;2024-03-02T05:12:44;61.60;;;30.05;;
36457;SDS011;22480;50.546;12.292;2024-03-02T05:15:10;66.07;;;30.60;;
36457;SDS011;22480;50.546;12.292;2024-03-02T05:17:37;63.60;;;30.08;;
36457;SDS011;22480;50.546;12.292;2024-03-02T05:20:06;66.82;;;29.90;;
36457;SDS011;22480;50.546;12.292;2024-03-02T05:22:35;63.42;;;31.27;;
36457;SDS011;22480;50.546;12.292;2024-03-02T05:25:02;62.92;;;30.05;;
36457;SDS011;22480;50.546;12.292;2024-03-02T05:27:29;63.95;;;31.38;;
36457;SDS011;22480;50.546;12.292;2024-03-02T05:29:55;64.72;;;31.88;;
36457;SDS011;22480;50.546;12.292;2024-03-02T05:32:21;61.20;;;30.70;;
36457;SDS011;22480;50.546;12.292;2024-03-02T05:34:47;58.20;;;30.20;;
36457;SDS011;22480;50.546;12.292;2024-03-02T05:37:12;61.97;;;29.95;;
36457;SDS011;22480;50.546;12.292;2024-03-02T05:39:38;59.10;;;29.60;;
36457;SDS011;22480;50.546;12.292;2024-03-02T05:42:03;56.70;;;29.73;;
36457;SDS011;22480;50.546;12.292;2024-03-02T05:44:29;61.40;;;30.23;;
36457;SDS011;22480;50.546;12.292;2024-03-02T05:46:55;60.83;;;30.77;;
36457;SDS011;22480;50.546;12.292;2024-03-02T05:49:21;56.10;;;30.88;;
36457;SDS011;22480;50.546;12.292;2024-03-02T05:51:47;56.72;;;30.08;;
36457;SDS011;22480;50.546;12.292;2024-03-02T05:54:13;60.85;;;31.38;;
36457;SDS011;22480;50.546;12.292;2024-03-02T05:56:38;53.38;;;28.05;;
36457;SDS011;22480;50.546;12.292;2024-03-02T05:59:04;54.30;;;28.00;;
36457;SDS011;22480;50.546;12.292;2024-03-02T06:01:39;56.13;;;27.55;;
36457;SDS011;22480;50.546;12.292;2024-03-02T06:04:06;51.83;;;26.20;;
36457;SDS011;22480;50.546;12.292;2024-03-02T06:06:32;55.53;;;27.45;;
36457;SDS011;22480;50.546;12.292;2024-03-02T06:09:01;54.40;;;27.60;;
36457;SDS011;22480;50.546;12.292;2024-03-02T06:11:32;53.30;;;27.10;;
36457;SDS011;22480;50.546;12.292;2024-03-02T06:14:02;52.55;;;28.00;;
36457;SDS011;22480;50.546;12.292;2024-03-02T06:16:28;51.13;;;26.48;;
36457;SDS011;22480;50.546;12.292;2024-03-02T06:18:55;52.83;;;26.50;;
36457;SDS011;22480;50.546;12.292;2024-03-02T06:21:22;51.95;;;27.42;;
36457;SDS011;22480;50.546;12.292;2024-03-02T06:23:48;48.88;;;25.92;;
36457;SDS011;22480;50.546;12.292;2024-03-02T06:26:14;43.22;;;23.73;;
36457;SDS011;22480;50.546;12.292;2024-03-02T06:28:40;48.72;;;25.52;;
36457;SDS011;22480;50.546;12.292;2024-03-02T06:31:06;44.90;;;25.98;;
36457;SDS011;22480;50.546;12.292;2024-03-02T06:33:31;46.80;;;24.75;;
36457;SDS011;22480;50.546;12.292;2024-03-02T06:35:57;43.80;;;23.70;;
36457;SDS011;22480;50.546;12.292;2024-03-02T06:38:22;39.78;;;22.35;;
36457;SDS011;22480;50.546;12.292;2024-03-02T06:40:48;39.17;;;23.02;;
36457;SDS011;22480;50.546;12.292;2024-03-02T06:43:14;39.63;;;22.60;;
36457;SDS011;22480;50.546;12.292;2024-03-02T06:45:40;42.45;;;21.55;;
36457;SDS011;22480;50.546;12.292;2024-03-02T06:48:06;36.58;;;19.95;;
36457;SDS011;22480;50.546;12.292;2024-03-02T06:50:32;36.53;;;19.30;;
36457;SDS011;22480;50.546;12.292;2024-03-02T06:52:57;29.10;;;17.80;;
36457;SDS011;22480;50.546;12.292;2024-03-02T06:55:23;31.17;;;18.10;;
36457;SDS011;22480;50.546;12.292;2024-03-02T06:57:51;32.90;;;18.17;;
36457;SDS011;22480;50.546;12.292;2024-03-02T07:00:17;31.23;;;18.90;;
36457;SDS011;22480;50.546;12.292;2024-03-02T07:02:45;30.55;;;17.25;;
36457;SDS011;22480;50.546;12.292;2024-03-02T07:05:11;26.15;;;16.02;;
36457;SDS011;22480;50.546;12.292;2024-03-02T07:07:37;25.08;;;15.55;;
36457;SDS011;22480;50.546;12.292;2024-03-02T07:10:03;26.27;;;15.70;;
36457;SDS011;22480;50.546;12.292;2024-03-02T07:12:30;23.70;;;15.07;;
36457;SDS011;22480;50.546;12.292;2024-03-02T07:14:56;27.20;;;16.00;;
36457;SDS011;22480;50.546;12.292;2024-03-02T07:17:28;25.67;;;14.32;;
36457;SDS011;22480;50.546;12.292;2024-03-02T07:19:54;26.02;;;14.85;;
36457;SDS011;22480;50.546;12.292;2024-03-02T07:22:20;22.45;;;14.27;;
36457;SDS011;22480;50.546;12.292;2024-03-02T07:24:46;19.77;;;12.95;;
36457;SDS011;22480;50.546;12.292;2024-03-02T07:27:12;20.00;;;12.88;;
36457;SDS011;22480;50.546;12.292;2024-03-02T07:29:38;19.20;;;13.18;;
36457;SDS011;22480;50.546;12.292;2024-03-02T07:32:05;17.92;;;11.98;;
36457;SDS011;22480;50.546;12.292;2024-03-02T07:34:31;18.13;;;12.10;;
36457;SDS011;22480;50.546;12.292;2024-03-02T07:36:57;18.77;;;11.07;;
36457;SDS011;22480;50.546;12.292;2024-03-02T07:39:23;18.75;;;10.90;;
36457;SDS011;22480;50.546;12.292;2024-03-02T07:41:49;20.52;;;12.15;;
36457;SDS011;22480;50.546;12.292;2024-03-02T07:44:15;18.73;;;11.95;;
36457;SDS011;22480;50.546;12.292;2024-03-02T07:46:44;19.33;;;11.25;;
36457;SDS011;22480;50.546;12.292;2024-03-02T07:49:11;16.92;;;11.75;;
36457;SDS011;22480;50.546;12.292;2024-03-02T07:51:38;16.00;;;10.63;;
36457;SDS011;22480;50.546;12.292;2024-03-02T07:54:04;19.23;;;12.35;;
36457;SDS011;22480;50.546;12.292;2024-03-02T07:56:30;19.50;;;12.32;;
36457;SDS011;22480;50.546;12.292;2024-03-02T07:58:56;16.48;;;11.50;;
36457;SDS011;22480;50.546;12.292;2024-03-02T08:01:26;16.67;;;10.98;;
36457;SDS011;22480;50.546;12.292;2024-03-02T08:03:52;17.40;;;11.18;;
36457;SDS011;22480;50.546;12.292;2024-03-02T08:06:18;18.17;;;11.18;;
36457;SDS011;22480;50.546;12.292;2024-03-02T08:08:46;18.65;;;10.55;;
36457;SDS011;22480;50.546;12.292;2024-03-02T08:11:12;51.85;;;30.58;;
36457;SDS011;22480;50.546;12.292;2024-03-02T08:13:38;21.33;;;15.90;;
36457;SDS011;22480;50.546;12.292;2024-03-02T08:16:04;19.88;;;12.73;;
36457;SDS011;22480;50.546;12.292;2024-03-02T08:18:32;22.92;;;14.52;;
36457;SDS011;22480;50.546;12.292;2024-03-02T08:20:59;15.75;;;10.73;;
36457;SDS011;22480;50.546;12.292;2024-03-02T08:23:25;19.27;;;11.73;;
36457;SDS011;22480;50.546;12.292;2024-03-02T08:25:50;15.02;;;9.85;;
36457;SDS011;22480;50.546;12.292;2024-03-02T08:28:16;17.63;;;11.18;;
36457;SDS011;22480;50.546;12.292;2024-03-02T08:30:42;18.65;;;11.50;;
36457;SDS011;22480;50.546;12.292;2024-03-02T08:33:08;17.00;;;10.73;;
36457;SDS011;22480;50.546;12.292;2024-03-02T08:35:33;17.77;;;11.45;;
36457;SDS011;22480;50.546;12.292;2024-03-02T08:38:04;17.30;;;11.32;;
36457;SDS011;22480;50.546;12.292;2024-03-02T08:40:30;16.90;;;11.18;;
36457;SDS011;22480;50.546;12.292;2024-03-02T08:42:56;16.40;;;11.48;;
36457;SDS011;22480;50.546;12.292;2024-03-02T08:45:21;16.42;;;11.18;;
36457;SDS011;22480;50.546;12.292;2024-03-02T08:47:47;22.27;;;17.25;;
36457;SDS011;22480;50.546;12.292;2024-03-02T08:50:13;23.17;;;16.45;;
36457;SDS011;22480;50.546;12.292;2024-03-02T08:52:39;19.75;;;13.68;;
36457;SDS011;22480;50.546;12.292;2024-03-02T08:55:05;27.05;;;20.95;;
36457;SDS011;22480;50.546;12.292;2024-03-02T08:57:32;19.35;;;14.32;;
36457;SDS011;22480;50.546;12.292;2024-03-02T08:59:58;23.20;;;17.48;;
36457;SDS011;22480;50.546;12.292;2024-03-02T09:02:25;22.08;;;18.17;;
36457;SDS011;22480;50.546;12.292;2024-03-02T09:04:50;17.65;;;13.57;;
36457;SDS011;22480;50.546;12.292;2024-03-02T09:07:16;16.75;;;12.60;;
36457;SDS011;22480;50.546;12.292;2024-03-02T09:09:42;26.10;;;20.58;;
36457;SDS011;22480;50.546;12.292;2024-03-02T09:12:08;27.98;;;20.25;;
36457;SDS011;22480;50.546;12.292;2024-03-02T09:14:34;22.30;;;14.50;;
36457;SDS011;22480;50.546;12.292;2024-03-02T09:17:01;13.60;;;9.15;;
36457;SDS011;22480;50.546;12.292;2024-03-02T09:19:28;24.83;;;18.85;;
36457;SDS011;22480;50.546;12.292;2024-03-02T09:21:54;15.45;;;10.35;;
36457;SDS011;22480;50.546;12.292;2024-03-02T09:24:21;13.93;;;9.63;;
36457;SDS011;22480;50.546;12.292;2024-03-02T09:26:47;12.57;;;8.75;;
36457;SDS011;22480;50.546;12.292;2024-03-02T09:29:13;14.40;;;10.77;;
36457;SDS011;22480;50.546;12.292;2024-03-02T09:31:39;13.02;;;9.40;;
36457;SDS011;22480;50.546;12.292;2024-03-02T09:34:08;12.98;;;8.35;;
36457;SDS011;22480;50.546;12.292;2024-03-02T09:36:34;11.82;;;7.95;;
36457;SDS011;22480;50.546;12.292;2024-03-02T09:39:00;22.40;;;17.60;;
36457;SDS011;22480;50.546;12.292;2024-03-02T09:41:25;19.52;;;15.23;;
36457;SDS011;22480;50.546;12.292;2024-03-02T09:43:52;13.43;;;9.48;;
36457;SDS011;22480;50.546;12.292;2024-03-02T09:46:17;31.50;;;26.30;;
36457;SDS011;22480;50.546;12.292;2024-03-02T09:48:44;11.82;;;8.32;;
36457;SDS011;22480;50.546;12.292;2024-03-02T09:51:10;29.60;;;22.48;;
36457;SDS011;22480;50.546;12.292;2024-03-02T09:53:37;30.52;;;24.25;;
36457;SDS011;22480;50.546;12.292;2024-03-02T09:56:03;17.58;;;13.25;;
36457;SDS011;22480;50.546;12.292;2024-03-02T09:58:29;14.60;;;11.25;;
36457;SDS011;22480;50.546;12.292;2024-03-02T10:00:55;17.67;;;12.50;;
36457;SDS011;22480;50.546;12.292;2024-03-02T10:03:22;15.15;;;12.57;;
36457;SDS011;22480;50.546;12.292;2024-03-02T10:05:49;16.52;;;10.95;;
36457;SDS011;22480;50.546;12.292;2024-03-02T10:08:15;13.73;;;9.32;;
36457;SDS011;22480;50.546;12.292;2024-03-02T10:10:41;14.23;;;12.45;;
36457;SDS011;22480;50.546;12.292;2024-03-02T10:13:08;11.70;;;8.40;;
36457;SDS011;22480;50.546;12.292;2024-03-02T10:15:36;15.15;;;10.95;;
36457;SDS011;22480;50.546;12.292;2024-03-02T10:18:03;10.32;;;7.75;;
36457;SDS011;22480;50.546;12.292;2024-03-02T10:20:29;12.55;;;8.25;;
36457;SDS011;22480;50.546;12.292;2024-03-02T10:22:55;9.82;;;7.95;;
36457;SDS011;22480;50.546;12.292;2024-03-02T10:25:28;10.23;;;7.75;;
36457;SDS011;22480;50.546;12.292;2024-03-02T10:27:58;10.73;;;7.97;;
36457;SDS011;22480;50.546;12.292;2024-03-02T10:30:27;9.27;;;7.03;;
36457;SDS011;22480;50.546;12.292;2024-03-02T10:32:56;10.55;;;7.10;;
36457;SDS011;22480;50.546;12.292;2024-03-02T10:35:22;12.15;;;8.27;;
36457;SDS011;22480;50.546;12.292;2024-03-02T10:37:48;14.30;;;8.27;;
36457;SDS011;22480;50.546;12.292;2024-03-02T10:40:14;11.32;;;8.57;;
36457;SDS011;22480;50.546;12.292;2024-03-02T10:42:41;11.35;;;8.43;;
36457;SDS011;22480;50.546;12.292;2024-03-02T10:45:08;14.52;;;9.10;;
36457;SDS011;22480;50.546;12.292;2024-03-02T10:47:38;13.13;;;9.15;;
36457;SDS011;22480;50.546;12.292;2024-03-02T10:50:04;12.07;;;9.52;;
36457;SDS011;22480;50.546;12.292;2024-03-02T10:52:34;13.57;;;8.80;;
36457;SDS011;22480;50.546;12.292;2024-03-02T10:55:00;11.95;;;8.93;;
36457;SDS011;22480;50.546;12.292;2024-03-02T10:57:26;13.68;;;8.65;;
36457;SDS011;22480;50.546;12.292;2024-03-02T10:59:58;10.23;;;8.30;;
36457;SDS011;22480;50.546;12.292;2024-03-02T11:02:27;12.30;;;8.20;;
36457;SDS011;22480;50.546;12.292;2024-03-02T11:04:55;9.73;;;7.20;;
36457;SDS011;22480;50.546;12.292;2024-03-02T11:07:21;12.43;;;7.78;;
36457;SDS011;22480;50.546;12.292;2024-03-02T11:09:57;13.32;;;8.00;;
36457;SDS011;22480;50.546;12.292;2024-03-02T11:12:38;10.57;;;7.93;;
36457;SDS011;22480;50.546;12.292;2024-03-02T11:15:10;11.60;;;8.35;;
36457;SDS011;22480;50.546;12.292;2024-03-02T11:17:39;11.63;;;9.15;;
36457;SDS011;22480;50.546;12.292;2024-03-02T11:20:06;14.15;;;11.48;;
36457;SDS011;22480;50.546;12.292;2024-03-02T11:22:35;18.42;;;15.23;;
36457;SDS011;22480;50.546;12.292;2024-03-02T11:25:01;14.23;;;10.10;;
36457;SDS011;22480;50.546;12.292;2024-03-02T11:32:59;12.77;;;9.00;;
36457;SDS011;22480;50.546;12.292;2024-03-02T11:35:25;11.73;;;8.32;;
36457;SDS011;22480;50.546;12.292;2024-03-02T11:37:52;13.15;;;8.65;;
36457;SDS011;22480;50.546;12.292;2024-03-02T11:40:25;11.57;;;9.20;;
36457;SDS011;22480;50.546;12.292;2024-03-02T11:42:51;11.98;;;8.48;;
36457;SDS011;22480;50.546;12.292;2024-03-02T11:45:22;9.73;;;7.70;;
36457;SDS011;22480;50.546;12.292;2024-03-02T11:52:59;16.42;;;10.50;;
36457;SDS011;22480;50.546;12.292;2024-03-02T11:55:28;11.23;;;8.55;;
36457;SDS011;22480;50.546;12.292;2024-03-02T11:57:56;11.98;;;8.88;;
36457;SDS011;22480;50.546;12.292;2024-03-02T12:00:22;13.05;;;8.50;;
36457;SDS011;22480;50.546;12.292;2024-03-02T12:03:01;14.52;;;8.32;;
36457;SDS011;22480;50.546;12.292;2024-03-02T12:05:28;10.07;;;7.45;;
36457;SDS011;22480;50.546;12.292;2024-03-02T12:07:59;10.88;;;8.05;;
36457;SDS011;22480;50.546;12.292;2024-03-02T12:10:26;12.70;;;8.85;;
36457;SDS011;22480;50.546;12.292;2024-03-02T12:13:01;14.25;;;12.30;;
36457;SDS011;22480;50.546;12.292;2024-03-02T12:15:36;9.70;;;7.38;;
36457;SDS011;22480;50.546;12.292;2024-03-02T12:18:03;9.93;;;6.82;;
36457;SDS011;22480;50.546;12.292;2024-03-02T12:20:30;8.93;;;7.50;;
36457;SDS011;22480;50.546;12.292;2024-03-02T12:22:57;9.98;;;6.85;;
36457;SDS011;22480;50.546;12.292;2024-03-02T12:25:24;11.93;;;8.98;;
36457;SDS011;22480;50.546;12.292;2024-03-02T12:27:52;9.55;;;7.55;;
36457;SDS011;22480;50.546;12.292;2024-03-02T12:30:19;8.90;;;7.05;;
36457;SDS011;22480;50.546;12.292;2024-03-02T12:32:46;10.70;;;7.03;;
36457;SDS011;22480;50.546;12.292;2024-03-02T12:35:12;8.40;;;6.93;;
36457;SDS011;22480;50.546;12.292;2024-03-02T12:37:45;8.23;;;6.82;;
36457;SDS011;22480;50.546;12.292;2024-03-02T12:40:12;8.27;;;6.85;;
36457;SDS011;22480;50.546;12.292;2024-03-02T12:42:39;9.35;;;7.53;;
36457;SDS011;22480;50.546;12.292;2024-03-02T12:45:06;8.27;;;6.93;;
36457;SDS011;22480;50.546;12.292;2024-03-02T12:51:19;7.70;;;6.00;;
36457;SDS011;22480;50.546;12.292;2024-03-02T12:53:44;9.65;;;7.47;;
36457;SDS011;22480;50.546;12.292;2024-03-02T12:56:10;8.88;;;7.25;;
36457;SDS011;22480;50.546;12.292;2024-03-02T12:58:39;9.80;;;7.43;;
36457;SDS011;22480;50.546;12.292;2024-03-02T13:01:08;8.77;;;5.60;;
36457;SDS011;22480;50.546;12.292;2024-03-02T13:03:38;14.60;;;12.10;;
36457;SDS011;22480;50.546;12.292;2024-03-02T13:06:04;16.95;;;13.30;;
36457;SDS011;22480;50.546;12.292;2024-03-02T13:08:31;8.18;;;6.75;;
36457;SDS011;22480;50.546;12.292;2024-03-02T13:10:57;6.88;;;5.60;;
36457;SDS011;22480;50.546;12.292;2024-03-02T13:13:23;7.63;;;5.30;;
36457;SDS011;22480;50.546;12.292;2024-03-02T13:15:49;8.85;;;5.25;;
36457;SDS011;22480;50.546;12.292;2024-03-02T13:18:14;7.85;;;4.85;;
36457;SDS011;22480;50.546;12.292;2024-03-02T13:20:43;7.45;;;5.00;;
36457;SDS011;22480;50.546;12.292;2024-03-02T13:23:08;8.65;;;5.60;;
36457;SDS011;22480;50.546;12.292;2024-03-02T13:25:35;8.00;;;4.63;;
36457;SDS011;22480;50.546;12.292;2024-03-02T13:28:00;8.50;;;5.80;;
36457;SDS011;22480;50.546;12.292;2024-03-02T13:30:27;5.80;;;4.97;;
36457;SDS011;22480;50.546;12.292;2024-03-02T13:32:53;6.22;;;4.97;;
36457;SDS011;22480;50.546;12.292;2024-03-02T13:35:19;6.05;;;4.60;;
36457;SDS011;22480;50.546;12.292;2024-03-02T13:37:44;4.63;;;3.95;;
36457;SDS011;22480;50.546;12.292;2024-03-02T13:40:10;6.07;;;4.40;;
36457;SDS011;22480;50.546;12.292;2024-03-02T13:42:41;4.78;;;3.47;;
36457;SDS011;22480;50.546;12.292;2024-03-02T13:45:07;4.85;;;4.20;;
36457;SDS011;22480;50.546;12.292;2024-03-02T13:47:33;4.03;;;3.42;;
36457;SDS011;22480;50.546;12.292;2024-03-02T13:49:59;4.47;;;3.63;;
36457;SDS011;22480;50.546;12.292;2024-03-02T13:52:24;5.25;;;3.65;;
36457;SDS011;22480;50.546;12.292;2024-03-02T13:54:51;4.47;;;3.80;;
36457;SDS011;22480;50.546;12.292;2024-03-02T13:57:20;4.35;;;2.88;;
36457;SDS011;22480;50.546;12.292;2024-03-02T13:59:45;5.07;;;3.30;;
36457;SDS011;22480;50.546;12.292;2024-03-02T14:02:12;4.07;;;3.03;;
36457;SDS011;22480;50.546;12.292;2024-03-02T14:04:38;4.72;;;2.75;;
36457;SDS011;22480;50.546;12.292;2024-03-02T14:07:04;4.68;;;3.22;;
36457;SDS011;22480;50.546;12.292;2024-03-02T14:09:33;3.42;;;2.70;;
36457;SDS011;22480;50.546;12.292;2024-03-02T14:11:59;2.80;;;2.60;;
36457;SDS011;22480;50.546;12.292;2024-03-02T14:14:26;3.92;;;2.63;;
36457;SDS011;22480;50.546;12.292;2024-03-02T14:16:52;3.65;;;2.72;;
36457;SDS011;22480;50.546;12.292;2024-03-02T14:19:19;5.78;;;3.10;;
36457;SDS011;22480;50.546;12.292;2024-03-02T14:21:46;8.00;;;5.22;;
36457;SDS011;22480;50.546;12.292;2024-03-02T14:24:12;8.30;;;4.57;;
36457;SDS011;22480;50.546;12.292;2024-03-02T14:26:38;3.38;;;2.80;;